createdAt,value
2018-02-19T00:00:42.582Z,68.81
2018-02-19T00:01:48.110Z,68.90
2018-02-19T00:02:53.599Z,68.90
2018-02-19T00:03:59.111Z,69.00
2018-02-19T00:05:04.693Z,68.90
2018-02-19T00:06:10.124Z,69.00
2018-02-19T00:07:15.623Z,69.19
2018-02-19T00:08:21.126Z,68.71
2018-02-19T00:09:26.643Z,68.81
2018-02-19T00:10:32.184Z,68.90
2018-02-19T00:11:37.651Z,68.90
2018-02-19T00:12:43.148Z,69.09
2018-02-19T00:13:48.657Z,68.81
2018-02-19T00:14:54.157Z,68.81
2018-02-19T00:15:59.663Z,69.00
2018-02-19T00:17:05.194Z,69.00
2018-02-19T00:18:10.679Z,68.62
2018-02-19T00:19:16.192Z,68.90
2018-02-19T00:20:21.688Z,68.81
2018-02-19T00:21:27.192Z,68.52
2018-02-19T00:22:32.707Z,68.71
2018-02-19T00:23:38.224Z,68.81
2018-02-19T00:24:43.707Z,68.62
2018-02-19T00:25:49.220Z,68.62
2018-02-19T00:26:54.720Z,68.43
2018-02-19T00:28:00.230Z,68.24
2018-02-19T00:29:05.742Z,68.62
2018-02-19T00:30:11.238Z,68.52
2018-02-19T00:31:16.750Z,68.24
2018-02-19T00:32:22.251Z,68.33
2018-02-19T00:33:27.774Z,68.33
2018-02-19T00:34:33.261Z,68.15
2018-02-19T00:35:38.767Z,68.43
2018-02-19T00:36:44.272Z,68.81
2018-02-19T00:37:49.779Z,68.43
2018-02-19T00:38:55.289Z,69.19
2018-02-19T00:40:00.788Z,69.00
2018-02-19T00:41:06.307Z,69.28
2018-02-19T00:42:11.817Z,69.57
2018-02-19T00:43:17.309Z,69.66
2018-02-19T00:44:22.814Z,69.76
2018-02-19T00:45:28.323Z,69.38
2018-02-19T00:46:33.826Z,69.76
2018-02-19T00:47:39.331Z,69.85
2018-02-19T00:48:44.838Z,69.19
2018-02-19T00:49:50.340Z,69.09
2018-02-19T00:50:55.849Z,68.90
2018-02-19T00:52:01.355Z,69.28
2018-02-19T00:53:06.905Z,69.38
2018-02-19T00:54:12.375Z,69.28
2018-02-19T00:55:17.873Z,68.71
2018-02-19T00:56:23.379Z,68.71
2018-02-19T00:57:28.883Z,68.43
2018-02-19T00:58:34.385Z,68.52
2018-02-19T00:59:39.892Z,68.71
2018-02-19T01:00:45.397Z,68.71
2018-02-19T01:01:50.905Z,68.71
2018-02-19T01:02:56.410Z,68.81
2018-02-19T01:04:01.981Z,68.81
2018-02-19T01:05:07.428Z,68.81
2018-02-19T01:06:12.982Z,69.00
2018-02-19T01:07:18.430Z,68.90
2018-02-19T01:08:23.938Z,68.90
2018-02-19T01:09:29.469Z,68.90
2018-02-19T01:10:34.957Z,68.71
2018-02-19T01:11:40.455Z,69.00
2018-02-19T01:12:45.960Z,68.90
2018-02-19T01:13:51.471Z,68.90
2018-02-19T01:14:56.973Z,69.28
2018-02-19T01:16:02.482Z,69.38
2018-02-19T01:17:07.983Z,69.47
2018-02-19T01:18:13.489Z,69.28
2018-02-19T01:19:19.002Z,69.47
2018-02-19T01:20:24.498Z,69.57
2018-02-19T01:21:30.018Z,70.32
2018-02-19T01:22:35.514Z,69.95
2018-02-19T01:23:41.026Z,69.19
2018-02-19T01:24:46.523Z,69.76
2018-02-19T01:25:52.028Z,69.66
2018-02-19T01:26:57.545Z,69.95
2018-02-19T01:28:03.049Z,69.28
2018-02-19T01:29:08.548Z,69.66
2018-02-19T01:30:14.053Z,69.76
2018-02-19T01:31:19.555Z,69.66
2018-02-19T01:32:25.059Z,69.76
2018-02-19T01:33:30.565Z,69.66
2018-02-19T01:34:36.073Z,69.57
2018-02-19T01:35:41.576Z,70.32
2018-02-19T01:36:47.142Z,69.95
2018-02-19T01:37:52.590Z,69.85
2018-02-19T01:38:58.095Z,70.04
2018-02-19T01:40:03.600Z,69.85
2018-02-19T01:41:09.103Z,69.85
2018-02-19T01:42:14.607Z,69.66
2018-02-19T01:43:20.125Z,69.85
2018-02-19T01:44:25.623Z,70.14
2018-02-19T01:45:31.132Z,70.14
2018-02-19T01:46:36.638Z,70.04
2018-02-19T01:47:42.140Z,69.85
2018-02-19T01:48:47.649Z,70.32
2018-02-19T01:49:53.162Z,70.51
2018-02-19T01:50:58.656Z,70.14
2018-02-19T01:52:04.226Z,70.42
2018-02-19T01:53:09.664Z,70.04
2018-02-19T01:54:15.176Z,69.85
2018-02-19T01:55:20.676Z,69.76
2018-02-19T01:56:26.179Z,69.95
2018-02-19T01:57:31.699Z,70.14
2018-02-19T01:58:37.188Z,70.04
2018-02-19T01:59:42.699Z,69.95
2018-02-19T02:00:48.200Z,69.66
2018-02-19T02:01:53.707Z,69.19
2018-02-19T02:02:59.219Z,70.14
2018-02-19T02:04:04.716Z,69.47
2018-02-19T02:05:10.233Z,69.66
2018-02-19T02:06:15.729Z,69.28
2018-02-19T02:07:21.283Z,69.70
2018-02-19T02:08:26.750Z,69.66
2018-02-19T02:09:32.248Z,69.85
2018-02-19T02:10:37.749Z,69.57
2018-02-19T02:11:43.254Z,69.47
2018-02-19T02:12:48.766Z,69.76
2018-02-19T02:13:54.269Z,69.60
2018-02-19T02:14:59.776Z,70.17
2018-02-19T02:16:05.280Z,70.17
2018-02-19T02:17:10.784Z,69.70
2018-02-19T02:18:16.287Z,69.60
2018-02-19T02:19:21.798Z,69.57
2018-02-19T02:20:27.304Z,70.14
2018-02-19T02:21:32.808Z,70.14
2018-02-19T02:22:38.316Z,69.85
2018-02-19T02:23:43.816Z,70.32
2018-02-19T02:24:49.321Z,69.95
2018-02-19T02:25:54.828Z,69.95
2018-02-19T02:27:00.337Z,70.32
2018-02-19T02:28:05.840Z,70.26
2018-02-19T02:29:11.352Z,70.04
2018-02-19T02:30:16.856Z,70.23
2018-02-19T02:31:22.357Z,70.14
2018-02-19T02:32:27.869Z,70.32
2018-02-19T02:33:33.367Z,70.14
2018-02-19T02:34:38.879Z,70.36
2018-02-19T02:35:44.381Z,70.23
2018-02-19T02:36:49.885Z,70.04
2018-02-19T02:37:55.396Z,70.14
2018-02-19T02:39:00.907Z,70.42
2018-02-19T02:40:06.400Z,70.04
2018-02-19T02:41:11.907Z,70.32
2018-02-19T02:42:17.414Z,70.32
2018-02-19T02:43:22.913Z,70.61
2018-02-19T02:44:28.422Z,70.04
2018-02-19T02:45:33.941Z,70.42
2018-02-19T02:46:39.435Z,70.04
2018-02-19T02:47:44.947Z,70.14
2018-02-19T02:48:50.465Z,70.14
2018-02-19T02:49:55.957Z,70.32
2018-02-19T02:51:01.462Z,70.17
2018-02-19T02:52:06.960Z,70.45
2018-02-19T02:53:12.471Z,70.17
2018-02-19T02:54:17.969Z,70.04
2018-02-19T02:55:23.477Z,70.45
2018-02-19T02:56:28.997Z,70.42
2018-02-19T02:57:34.487Z,70.45
2018-02-19T02:58:39.995Z,70.42
2018-02-19T02:59:45.499Z,70.04
2018-02-19T03:00:51.004Z,70.32
2018-02-19T03:01:56.510Z,70.14
2018-02-19T03:03:02.023Z,70.17
2018-02-19T03:04:07.524Z,70.04
2018-02-19T03:05:13.031Z,70.04
2018-02-19T03:06:18.533Z,70.14
2018-02-19T03:07:24.036Z,70.17
2018-02-19T03:08:29.546Z,70.26
2018-02-19T03:09:35.048Z,70.04
2018-02-19T03:10:40.555Z,70.07
2018-02-19T03:11:46.059Z,70.45
2018-02-19T03:12:51.570Z,70.04
2018-02-19T03:13:57.072Z,69.95
2018-02-19T03:15:02.592Z,70.07
2018-02-19T03:16:08.086Z,70.42
2018-02-19T03:17:13.591Z,70.42
2018-02-19T03:18:19.092Z,70.32
2018-02-19T03:19:24.597Z,70.23
2018-02-19T03:20:30.104Z,70.14
2018-02-19T03:21:35.609Z,70.32
2018-02-19T03:22:41.117Z,70.55
2018-02-19T03:23:46.638Z,69.95
2018-02-19T03:24:52.128Z,70.32
2018-02-19T03:25:57.634Z,70.79
2018-02-19T03:27:03.144Z,70.89
2018-02-19T03:28:08.640Z,70.98
2018-02-19T03:29:14.145Z,70.89
2018-02-19T03:30:19.658Z,70.89
2018-02-19T03:31:25.165Z,70.89
2018-02-19T03:32:30.674Z,70.61
2018-02-19T03:33:36.188Z,70.70
2018-02-19T03:34:41.761Z,71.12
2018-02-19T03:35:47.185Z,71.21
2018-02-19T03:36:52.689Z,70.93
2018-02-19T03:37:58.196Z,70.93
2018-02-19T03:39:03.698Z,70.93
2018-02-19T03:40:09.211Z,70.70
2018-02-19T03:41:14.711Z,70.93
2018-02-19T03:42:20.217Z,71.12
2018-02-19T03:43:25.723Z,71.02
2018-02-19T03:44:31.231Z,71.02
2018-02-19T03:45:36.728Z,71.08
2018-02-19T03:46:42.241Z,71.08
2018-02-19T03:47:47.747Z,70.74
2018-02-19T03:48:53.252Z,71.08
2018-02-19T03:49:58.754Z,70.70
2018-02-19T03:51:04.255Z,70.51
2018-02-19T03:52:09.768Z,70.83
2018-02-19T03:53:15.270Z,70.89
2018-02-19T03:54:20.773Z,70.64
2018-02-19T03:55:26.281Z,69.89
2018-02-19T03:56:31.783Z,70.14
2018-02-19T03:57:37.288Z,70.26
2018-02-19T03:58:42.799Z,70.45
2018-02-19T03:59:48.321Z,69.79
2018-02-19T04:00:53.811Z,70.45
2018-02-19T04:01:59.312Z,69.98
2018-02-19T04:03:04.825Z,70.07
2018-02-19T04:04:10.323Z,69.89
2018-02-19T04:05:15.828Z,69.98
2018-02-19T04:06:21.340Z,70.26
2018-02-19T04:07:26.842Z,69.89
2018-02-19T04:08:32.348Z,69.22
2018-02-19T04:09:37.851Z,69.60
2018-02-19T04:10:43.355Z,69.32
2018-02-19T04:11:48.862Z,69.32
2018-02-19T04:12:54.368Z,69.60
2018-02-19T04:13:59.881Z,69.70
2018-02-19T04:15:05.384Z,69.79
2018-02-19T04:16:10.886Z,69.22
2018-02-19T04:17:16.389Z,69.41
2018-02-19T04:18:21.896Z,68.94
2018-02-19T04:19:27.414Z,68.84
2018-02-19T04:20:32.908Z,68.94
2018-02-19T04:21:38.415Z,69.13
2018-02-19T04:22:43.921Z,69.13
2018-02-19T04:23:49.428Z,68.75
2018-02-19T04:24:54.935Z,68.94
2018-02-19T04:26:00.438Z,68.94
2018-02-19T04:27:06.093Z,68.84
2018-02-19T04:28:11.449Z,68.56
2018-02-19T04:29:16.953Z,68.84
2018-02-19T04:30:22.465Z,68.94
2018-02-19T04:31:27.972Z,69.03
2018-02-19T04:32:33.474Z,68.94
2018-02-19T04:33:38.980Z,69.79
2018-02-19T04:34:44.487Z,69.89
2018-02-19T04:35:49.991Z,69.70
2018-02-19T04:36:55.499Z,69.41
2018-02-19T04:38:00.997Z,69.22
2018-02-19T04:39:06.509Z,69.13
2018-02-19T04:40:12.010Z,69.03
2018-02-19T04:41:17.516Z,68.94
2018-02-19T04:42:23.034Z,68.94
2018-02-19T04:43:28.546Z,69.51
2018-02-19T04:44:34.038Z,69.13
2018-02-19T04:45:39.539Z,69.51
2018-02-19T04:46:45.060Z,69.32
2018-02-19T04:47:50.559Z,69.32
2018-02-19T04:48:56.055Z,68.94
2018-02-19T04:50:01.568Z,68.94
2018-02-19T04:51:07.072Z,69.03
2018-02-19T04:52:12.579Z,68.94
2018-02-19T04:53:18.079Z,68.84
2018-02-19T04:54:23.586Z,69.41
2018-02-19T04:55:29.089Z,69.98
2018-02-19T04:56:34.597Z,69.51
2018-02-19T04:57:40.102Z,69.13
2018-02-19T04:58:45.605Z,68.94
2018-02-19T04:59:51.121Z,69.03
2018-02-19T05:00:56.618Z,69.03
2018-02-19T05:02:02.125Z,68.94
2018-02-19T05:03:07.633Z,69.03
2018-02-19T05:04:13.138Z,68.84
2018-02-19T05:05:18.642Z,69.03
2018-02-19T05:06:24.146Z,68.94
2018-02-19T05:07:29.650Z,69.13
2018-02-19T05:08:35.157Z,69.03
2018-02-19T05:09:40.666Z,69.03
2018-02-19T05:10:46.168Z,68.84
2018-02-19T05:11:51.676Z,68.84
2018-02-19T05:12:57.200Z,68.75
2018-02-19T05:14:02.728Z,68.84
2018-02-19T05:15:08.189Z,68.94
2018-02-19T05:16:13.697Z,69.03
2018-02-19T05:17:19.202Z,69.03
2018-02-19T05:18:24.709Z,68.84
2018-02-19T05:19:30.217Z,69.03
2018-02-19T05:20:35.719Z,69.13
2018-02-19T05:21:41.231Z,69.03
2018-02-19T05:22:46.728Z,68.75
2018-02-19T05:23:52.233Z,68.75
2018-02-19T05:24:57.741Z,69.13
2018-02-19T05:26:03.247Z,69.03
2018-02-19T05:27:08.753Z,68.94
2018-02-19T05:28:14.259Z,68.84
2018-02-19T05:29:19.760Z,68.94
2018-02-19T05:30:25.269Z,68.94
2018-02-19T05:31:30.779Z,69.22
2018-02-19T05:32:36.281Z,68.84
2018-02-19T05:33:41.789Z,68.84
2018-02-19T05:34:47.290Z,69.13
2018-02-19T05:35:52.801Z,68.56
2018-02-19T05:36:58.305Z,69.03
2018-02-19T05:38:03.818Z,68.94
2018-02-19T05:39:09.315Z,69.03
2018-02-19T05:40:14.820Z,69.03
2018-02-19T05:41:20.323Z,68.94
2018-02-19T05:42:25.830Z,69.00
2018-02-19T05:43:31.337Z,68.94
2018-02-19T05:44:36.861Z,69.22
2018-02-19T05:45:42.348Z,68.90
2018-02-19T05:46:47.851Z,68.84
2018-02-19T05:47:53.357Z,68.81
2018-02-19T05:48:58.864Z,68.84
2018-02-19T05:50:04.381Z,69.13
2018-02-19T05:51:09.885Z,68.90
2018-02-19T05:52:15.382Z,69.38
2018-02-19T05:53:20.897Z,69.22
2018-02-19T05:54:26.394Z,69.22
2018-02-19T05:55:31.897Z,68.75
2018-02-19T05:56:37.409Z,68.65
2018-02-19T05:57:42.907Z,68.75
2018-02-19T05:58:48.411Z,69.03
2018-02-19T05:59:53.924Z,69.13
2018-02-19T06:00:59.426Z,69.03
2018-02-19T06:02:04.935Z,69.22
2018-02-19T06:03:10.438Z,69.13
2018-02-19T06:04:15.950Z,68.94
2018-02-19T06:05:21.446Z,68.94
2018-02-19T06:06:26.953Z,68.94
2018-02-19T06:07:32.473Z,69.03
2018-02-19T06:08:37.964Z,68.94
2018-02-19T06:09:43.467Z,68.46
2018-02-19T06:10:48.979Z,68.75
2018-02-19T06:11:54.478Z,68.94
2018-02-19T06:12:59.983Z,68.37
2018-02-19T06:14:05.488Z,68.46
2018-02-19T06:15:10.996Z,68.18
2018-02-19T06:16:16.502Z,68.56
2018-02-19T06:17:22.015Z,68.37
2018-02-19T06:18:27.513Z,68.18
2018-02-19T06:19:33.017Z,68.27
2018-02-19T06:20:38.525Z,67.99
2018-02-19T06:21:44.028Z,68.56
2018-02-19T06:22:49.534Z,68.27
2018-02-19T06:23:55.041Z,68.08
2018-02-19T06:25:00.549Z,68.08
2018-02-19T06:26:06.055Z,67.80
2018-02-19T06:27:11.566Z,67.80
2018-02-19T06:28:17.063Z,67.52
2018-02-19T06:29:22.568Z,67.71
2018-02-19T06:30:28.081Z,68.08
2018-02-19T06:31:33.580Z,67.99
2018-02-19T06:32:39.088Z,67.80
2018-02-19T06:33:44.591Z,67.90
2018-02-19T06:34:50.097Z,67.71
2018-02-19T06:35:55.633Z,67.33
2018-02-19T06:37:01.110Z,67.61
2018-02-19T06:38:06.614Z,67.43
2018-02-19T06:39:12.120Z,67.14
2018-02-19T06:40:17.626Z,67.43
2018-02-19T06:41:23.130Z,67.43
2018-02-19T06:42:28.635Z,67.24
2018-02-19T06:43:34.153Z,67.14
2018-02-19T06:44:39.647Z,66.95
2018-02-19T06:45:45.154Z,67.33
2018-02-19T06:46:50.658Z,66.86
2018-02-19T06:47:56.162Z,66.86
2018-02-19T06:49:01.670Z,67.33
2018-02-19T06:50:07.180Z,67.43
2018-02-19T06:51:12.683Z,67.14
2018-02-19T06:52:18.186Z,67.33
2018-02-19T06:53:23.693Z,66.95
2018-02-19T06:54:29.200Z,67.05
2018-02-19T06:55:34.790Z,67.14
2018-02-19T06:56:40.214Z,67.43
2018-02-19T06:57:45.764Z,67.05
2018-02-19T06:58:51.224Z,66.95
2018-02-19T06:59:56.726Z,67.14
2018-02-19T07:01:02.238Z,66.95
2018-02-19T07:02:07.737Z,67.33
2018-02-19T07:03:13.248Z,66.67
2018-02-19T07:04:18.759Z,66.67
2018-02-19T07:05:24.259Z,66.86
2018-02-19T07:06:29.760Z,66.47
2018-02-19T07:07:35.269Z,66.67
2018-02-19T07:08:40.786Z,66.57
2018-02-19T07:09:46.278Z,66.67
2018-02-19T07:10:51.784Z,67.05
2018-02-19T07:11:57.288Z,66.67
2018-02-19T07:13:02.801Z,66.57
2018-02-19T07:14:08.309Z,66.86
2018-02-19T07:15:13.809Z,66.67
2018-02-19T07:16:19.316Z,66.86
2018-02-19T07:17:24.817Z,67.05
2018-02-19T07:18:30.329Z,66.95
2018-02-19T07:19:35.881Z,66.67
2018-02-19T07:20:41.338Z,66.57
2018-02-19T07:21:46.844Z,66.76
2018-02-19T07:22:52.348Z,66.47
2018-02-19T07:23:57.867Z,66.09
2018-02-19T07:25:03.401Z,66.09
2018-02-19T07:26:08.866Z,65.91
2018-02-19T07:27:14.376Z,66.47
2018-02-19T07:28:19.878Z,66.86
2018-02-19T07:29:25.381Z,66.57
2018-02-19T07:30:30.899Z,66.76
2018-02-19T07:31:36.396Z,66.86
2018-02-19T07:32:41.898Z,67.33
2018-02-19T07:33:47.408Z,66.76
2018-02-19T07:34:52.916Z,66.67
2018-02-19T07:35:58.421Z,66.86
2018-02-19T07:37:03.933Z,66.00
2018-02-19T07:38:09.429Z,66.09
2018-02-19T07:39:14.936Z,66.00
2018-02-19T07:40:20.446Z,66.38
2018-02-19T07:41:25.946Z,66.28
2018-02-19T07:42:31.452Z,66.09
2018-02-19T07:43:36.958Z,66.38
2018-02-19T07:44:42.474Z,66.19
2018-02-19T07:45:48.010Z,66.86
2018-02-19T07:46:53.478Z,66.95
2018-02-19T07:47:58.982Z,66.86
2018-02-19T07:49:04.495Z,66.70
2018-02-19T07:50:09.996Z,66.67
2018-02-19T07:51:15.514Z,66.47
2018-02-19T07:52:21.011Z,66.41
2018-02-19T07:53:26.518Z,65.84
2018-02-19T07:54:32.017Z,65.94
2018-02-19T07:55:37.524Z,66.38
2018-02-19T07:56:43.033Z,66.32
2018-02-19T07:57:48.534Z,66.09
2018-02-19T07:58:54.045Z,66.22
2018-02-19T07:59:59.549Z,65.94
2018-02-19T08:01:05.052Z,66.13
2018-02-19T08:02:10.560Z,66.13
2018-02-19T08:03:16.062Z,66.03
2018-02-19T08:04:21.568Z,65.84
2018-02-19T08:05:27.077Z,65.56
2018-02-19T08:06:32.584Z,66.13
2018-02-19T08:07:38.089Z,66.13
2018-02-19T08:08:43.599Z,66.03
2018-02-19T08:09:49.107Z,66.03
2018-02-19T08:10:54.609Z,66.22
2018-02-19T08:12:00.112Z,66.32
2018-02-19T08:13:05.621Z,66.19
2018-02-19T08:14:11.121Z,66.09
2018-02-19T08:15:16.640Z,65.66
2018-02-19T08:16:22.136Z,66.32
2018-02-19T08:17:27.641Z,66.00
2018-02-19T08:18:33.150Z,65.66
2018-02-19T08:19:38.651Z,65.84
2018-02-19T08:20:44.160Z,65.47
2018-02-19T08:21:49.663Z,65.75
2018-02-19T08:22:55.180Z,66.13
2018-02-19T08:24:00.675Z,66.41
2018-02-19T08:25:06.180Z,66.13
2018-02-19T08:26:11.690Z,65.66
2018-02-19T08:27:17.202Z,66.32
2018-02-19T08:28:22.698Z,66.32
2018-02-19T08:29:28.269Z,65.56
2018-02-19T08:30:33.710Z,65.75
2018-02-19T08:31:39.218Z,65.66
2018-02-19T08:32:44.727Z,65.84
2018-02-19T08:33:50.230Z,65.75
2018-02-19T08:34:55.735Z,65.28
2018-02-19T08:36:01.247Z,65.37
2018-02-19T08:37:06.751Z,64.90
2018-02-19T08:38:12.258Z,65.09
2018-02-19T08:39:17.761Z,64.81
2018-02-19T08:40:23.269Z,65.00
2018-02-19T08:41:28.815Z,65.19
2018-02-19T08:42:34.280Z,65.00
2018-02-19T08:43:39.787Z,65.00
2018-02-19T08:44:45.302Z,64.08
2018-02-19T08:45:50.800Z,64.93
2018-02-19T08:46:56.303Z,63.89
2018-02-19T08:48:01.814Z,64.36
2018-02-19T08:49:07.315Z,64.08
2018-02-19T08:50:12.832Z,63.51
2018-02-19T08:51:18.331Z,64.08
2018-02-19T08:52:23.842Z,64.08
2018-02-19T08:53:29.347Z,63.51
2018-02-19T08:54:34.848Z,63.51
2018-02-19T08:55:40.353Z,62.47
2018-02-19T08:56:45.869Z,63.04
2018-02-19T08:57:51.399Z,62.94
2018-02-19T08:58:56.874Z,62.85
2018-02-19T09:00:02.383Z,62.47
2018-02-19T09:01:07.890Z,62.66
2018-02-19T09:02:13.394Z,62.85
2018-02-19T09:03:18.902Z,62.85
2018-02-19T09:04:24.416Z,62.75
2018-02-19T09:05:29.951Z,62.66
2018-02-19T09:06:35.421Z,61.90
2018-02-19T09:07:40.953Z,62.28
2018-02-19T09:08:46.440Z,61.90
2018-02-19T09:09:51.953Z,61.90
2018-02-19T09:10:57.451Z,62.56
2018-02-19T09:12:02.971Z,62.66
2018-02-19T09:13:08.465Z,61.74
2018-02-19T09:14:13.970Z,61.65
2018-02-19T09:15:19.476Z,61.65
2018-02-19T09:16:24.984Z,61.74
2018-02-19T09:17:30.491Z,61.99
2018-02-19T09:18:36.000Z,61.99
2018-02-19T09:19:41.509Z,61.52
2018-02-19T09:20:47.017Z,61.52
2018-02-19T09:21:52.517Z,61.61
2018-02-19T09:22:58.030Z,61.43
2018-02-19T09:24:03.533Z,61.61
2018-02-19T09:25:09.039Z,61.43
2018-02-19T09:26:14.544Z,61.33
2018-02-19T09:27:20.051Z,61.52
2018-02-19T09:28:25.560Z,61.52
2018-02-19T09:29:31.067Z,61.71
2018-02-19T09:30:36.572Z,61.43
2018-02-19T09:31:42.077Z,61.99
2018-02-19T09:32:47.587Z,61.99
2018-02-19T09:33:53.099Z,61.80
2018-02-19T09:34:58.598Z,61.43
2018-02-19T09:36:04.107Z,61.43
2018-02-19T09:37:09.615Z,60.95
2018-02-19T09:38:15.119Z,61.43
2018-02-19T09:39:20.635Z,61.43
2018-02-19T09:40:26.136Z,61.14
2018-02-19T09:41:31.642Z,61.27
2018-02-19T09:42:37.160Z,61.46
2018-02-19T09:43:42.660Z,61.83
2018-02-19T09:44:48.278Z,61.83
2018-02-19T09:45:53.766Z,61.74
2018-02-19T09:46:59.199Z,61.46
2018-02-19T09:48:04.708Z,61.65
2018-02-19T09:49:10.198Z,60.89
2018-02-19T09:50:15.755Z,59.94
2018-02-19T09:51:21.217Z,60.41
2018-02-19T09:52:26.726Z,60.50
2018-02-19T09:53:32.279Z,60.70
2018-02-19T09:54:37.731Z,60.03
2018-02-19T09:55:43.239Z,60.03
2018-02-19T09:56:48.741Z,59.94
2018-02-19T09:57:54.250Z,59.84
2018-02-19T09:58:59.803Z,59.59
2018-02-19T10:00:05.262Z,59.97
2018-02-19T10:01:10.767Z,59.59
2018-02-19T10:02:16.284Z,59.21
2018-02-19T10:03:21.796Z,58.07
2018-02-19T10:04:27.305Z,58.17
2018-02-19T10:05:32.848Z,57.98
2018-02-19T10:06:38.307Z,58.26
2018-02-19T10:07:43.814Z,58.17
2018-02-19T10:08:49.323Z,57.98
2018-02-19T10:09:54.829Z,57.98
2018-02-19T10:11:00.352Z,57.98
2018-02-19T10:12:05.902Z,58.36
2018-02-19T10:13:11.352Z,57.40
2018-02-19T10:14:16.856Z,57.40
2018-02-19T10:15:22.369Z,57.03
2018-02-19T10:16:27.884Z,57.21
2018-02-19T10:17:33.382Z,58.07
2018-02-19T10:18:38.909Z,57.31
2018-02-19T10:19:44.399Z,57.03
2018-02-19T10:20:49.909Z,56.93
2018-02-19T10:21:55.420Z,56.46
2018-02-19T10:23:00.919Z,56.84
2018-02-19T10:24:06.429Z,57.03
2018-02-19T10:25:11.954Z,57.06
2018-02-19T10:26:17.443Z,56.68
2018-02-19T10:27:22.955Z,55.25
2018-02-19T10:28:28.460Z,55.06
2018-02-19T10:29:33.970Z,55.06
2018-02-19T10:30:39.479Z,55.35
2018-02-19T10:31:44.991Z,55.35
2018-02-19T10:32:50.491Z,54.78
2018-02-19T10:33:55.997Z,55.44
2018-02-19T10:35:01.510Z,55.54
2018-02-19T10:36:07.015Z,55.16
2018-02-19T10:37:12.530Z,54.90
2018-02-19T10:38:18.030Z,54.24
2018-02-19T10:39:23.543Z,54.05
2018-02-19T10:40:29.048Z,54.14
2018-02-19T10:41:34.563Z,53.66
2018-02-19T10:42:40.090Z,53.85
2018-02-19T10:43:45.585Z,53.76
2018-02-19T10:44:51.107Z,53.95
2018-02-19T10:45:56.600Z,53.85
2018-02-19T10:47:02.098Z,53.28
2018-02-19T10:48:07.609Z,53.28
2018-02-19T10:49:13.113Z,52.62
2018-02-19T10:50:18.619Z,52.72
2018-02-19T10:51:24.131Z,53.09
2018-02-19T10:52:29.642Z,53.28
2018-02-19T10:53:35.148Z,52.91
2018-02-19T10:54:40.666Z,53.00
2018-02-19T10:55:46.171Z,52.91
2018-02-19T10:56:51.675Z,53.31
2018-02-19T10:57:57.187Z,53.09
2018-02-19T10:59:02.694Z,52.72
2018-02-19T11:00:08.198Z,52.26
2018-02-19T11:01:13.708Z,51.89
2018-02-19T11:02:19.234Z,51.60
2018-02-19T11:03:24.917Z,51.51
2018-02-19T11:04:30.291Z,51.41
2018-02-19T11:05:35.747Z,51.79
2018-02-19T11:06:41.255Z,52.17
2018-02-19T11:07:46.765Z,51.98
2018-02-19T11:08:52.269Z,52.26
2018-02-19T11:09:57.778Z,52.08
2018-02-19T11:11:03.290Z,51.98
2018-02-19T11:12:08.799Z,51.03
2018-02-19T11:13:14.351Z,51.12
2018-02-19T11:14:19.820Z,51.12
2018-02-19T11:15:25.327Z,50.93
2018-02-19T11:16:30.836Z,50.74
2018-02-19T11:17:36.345Z,50.84
2018-02-19T11:18:41.855Z,49.89
2018-02-19T11:19:47.365Z,49.54
2018-02-19T11:20:52.874Z,49.70
2018-02-19T11:21:58.385Z,49.44
2018-02-19T11:23:03.897Z,49.44
2018-02-19T11:24:09.440Z,49.54
2018-02-19T11:25:14.922Z,50.29
2018-02-19T11:26:20.420Z,49.54
2018-02-19T11:27:25.932Z,48.77
2018-02-19T11:28:31.439Z,49.54
2018-02-19T11:29:36.991Z,49.44
2018-02-19T11:30:42.459Z,49.25
2018-02-19T11:31:47.972Z,49.44
2018-02-19T11:32:53.474Z,49.25
2018-02-19T11:33:58.996Z,49.63
2018-02-19T11:35:04.521Z,49.54
2018-02-19T11:36:10.006Z,49.63
2018-02-19T11:37:15.515Z,49.63
2018-02-19T11:38:21.026Z,48.01
2018-02-19T11:39:26.531Z,48.11
2018-02-19T11:40:32.048Z,46.88
2018-02-19T11:41:37.554Z,47.16
2018-02-19T11:42:43.062Z,46.97
2018-02-19T11:43:48.569Z,47.16
2018-02-19T11:44:54.079Z,47.63
2018-02-19T11:45:59.595Z,48.01
2018-02-19T11:47:05.102Z,47.06
2018-02-19T11:48:10.605Z,47.16
2018-02-19T11:49:16.120Z,47.44
2018-02-19T11:50:21.631Z,47.06
2018-02-19T11:51:27.138Z,47.16
2018-02-19T11:52:32.649Z,47.54
2018-02-19T11:53:38.155Z,47.34
2018-02-19T11:54:43.680Z,46.40
2018-02-19T11:55:49.179Z,46.30
2018-02-19T11:56:54.696Z,46.78
2018-02-19T11:58:00.198Z,46.88
2018-02-19T11:59:05.704Z,47.34
2018-02-19T12:00:11.213Z,46.68
2018-02-19T12:01:16.727Z,47.16
2018-02-19T12:02:22.355Z,46.40
2018-02-19T12:03:27.749Z,47.06
2018-02-19T12:04:33.254Z,46.78
2018-02-19T12:05:38.771Z,47.16
2018-02-19T12:06:44.277Z,46.49
2018-02-19T12:07:49.789Z,46.20
2018-02-19T12:08:55.309Z,46.97
2018-02-19T12:10:00.809Z,47.06
2018-02-19T12:11:06.315Z,47.37
2018-02-19T12:12:11.824Z,46.97
2018-02-19T12:13:17.334Z,47.18
2018-02-19T12:14:22.839Z,47.09
2018-02-19T12:15:28.351Z,46.89
2018-02-19T12:16:33.862Z,46.61
2018-02-19T12:17:39.371Z,46.14
2018-02-19T12:18:44.889Z,46.70
2018-02-19T12:19:50.396Z,46.20
2018-02-19T12:20:55.899Z,45.35
2018-02-19T12:22:01.409Z,45.45
2018-02-19T12:23:06.918Z,45.83
2018-02-19T12:24:12.434Z,45.16
2018-02-19T12:25:17.937Z,45.37
2018-02-19T12:26:23.465Z,45.47
2018-02-19T12:27:28.959Z,45.66
2018-02-19T12:28:34.467Z,45.09
2018-02-19T12:29:39.985Z,45.47
2018-02-19T12:30:45.487Z,45.18
2018-02-19T12:31:50.996Z,45.09
2018-02-19T12:32:56.507Z,45.47
2018-02-19T12:34:02.018Z,45.37
2018-02-19T12:35:07.531Z,45.47
2018-02-19T12:36:13.036Z,46.14
2018-02-19T12:37:18.554Z,46.42
2018-02-19T12:38:24.057Z,45.56
2018-02-19T12:39:29.582Z,45.28
2018-02-19T12:40:35.078Z,45.47
2018-02-19T12:41:40.593Z,45.28
2018-02-19T12:42:46.101Z,44.61
2018-02-19T12:43:51.610Z,44.33
2018-02-19T12:44:57.131Z,44.13
2018-02-19T12:46:02.653Z,45.09
2018-02-19T12:47:08.139Z,44.97
2018-02-19T12:48:13.649Z,45.47
2018-02-19T12:49:19.164Z,45.85
2018-02-19T12:50:24.669Z,46.14
2018-02-19T12:51:30.177Z,46.44
2018-02-19T12:52:35.696Z,46.37
2018-02-19T12:53:41.211Z,44.59
2018-02-19T12:54:46.711Z,42.41
2018-02-19T12:55:52.222Z,42.22
2018-02-19T12:56:57.736Z,41.17
2018-02-19T12:58:03.248Z,39.94
2018-02-19T12:59:08.753Z,39.46
2018-02-19T13:00:14.262Z,39.46
2018-02-19T13:01:19.773Z,39.63
2018-02-19T13:02:25.292Z,40.48
2018-02-19T13:03:30.796Z,41.06
2018-02-19T13:04:36.308Z,41.25
2018-02-19T13:05:41.822Z,41.63
2018-02-19T13:06:47.325Z,41.16
2018-02-19T13:07:52.837Z,40.70
2018-02-19T13:08:58.364Z,40.24
2018-02-19T13:10:03.857Z,39.22
2018-02-19T13:11:09.376Z,37.23
2018-02-19T13:12:14.888Z,35.82
2018-02-19T13:13:20.398Z,34.77
2018-02-19T13:14:25.903Z,35.05
2018-02-19T13:15:31.419Z,35.22
2018-02-19T13:16:36.930Z,35.91
2018-02-19T13:17:42.440Z,35.72
2018-02-19T13:18:47.965Z,35.05
2018-02-19T13:19:53.468Z,35.62
2018-02-19T13:20:58.977Z,35.45
2018-02-19T13:22:04.494Z,34.59
2018-02-19T13:23:10.008Z,35.06
2018-02-19T13:24:15.522Z,34.32
2018-02-19T13:25:21.037Z,34.20
2018-02-19T13:26:26.553Z,34.59
2018-02-19T13:27:32.067Z,33.83
2018-02-19T13:28:37.571Z,32.39
2018-02-19T13:29:43.089Z,32.58
2018-02-19T13:30:48.600Z,32.49
2018-02-19T13:31:54.113Z,32.97
2018-02-19T13:32:59.643Z,33.42
2018-02-19T13:34:05.148Z,34.48
2018-02-19T13:35:10.653Z,35.03
2018-02-19T13:36:16.171Z,35.22
2018-02-19T13:37:21.692Z,35.11
2018-02-19T13:38:27.196Z,36.64
2018-02-19T13:39:32.715Z,36.35
2018-02-19T13:40:38.231Z,37.10
2018-02-19T13:41:43.737Z,37.76
2018-02-19T13:42:49.246Z,38.89
2018-02-19T13:43:54.767Z,38.70
2018-02-19T13:45:00.300Z,38.41
2018-02-19T13:46:05.785Z,38.89
2018-02-19T13:47:11.309Z,39.36
2018-02-19T13:48:16.818Z,39.44
2018-02-19T13:49:22.328Z,40.30
2018-02-19T13:50:27.840Z,40.48
2018-02-19T13:51:33.349Z,39.92
2018-02-19T13:52:38.866Z,40.30
2018-02-19T13:53:44.483Z,40.30
2018-02-19T13:54:49.905Z,40.75
2018-02-19T13:55:55.411Z,40.47
2018-02-19T13:57:00.999Z,40.47
2018-02-19T13:58:06.435Z,41.04
2018-02-19T13:59:11.938Z,41.23
2018-02-19T14:00:17.449Z,41.40
2018-02-19T14:01:22.960Z,41.78
2018-02-19T14:02:28.472Z,41.69
2018-02-19T14:03:33.991Z,41.78